Time;durP1;ratioP1;P1;durP2;ratioP2;P2;SDS_P1;SDS_P2;PMS_P1;PMS_P2;Temp;Humidity;BMP_temperature;BMP_pressure;BME280_temperature;BME280_humidity;BME280_pressure;Samples;Min_cycle;Max_cycle;Signal;HPM_P1;HPM_P2
2022/06/05 00:02:46;;;;;;;10.27;4.75;;;12.40;99.90;;;;;;5010404;28;20061;-75
2022/06/05 00:05:13;;;;;;;10.93;5.53;;;12.40;99.90;;;;;;5024592;28;20725;-78
2022/06/05 00:07:53;;;;;;;12.35;5.40;;;12.40;99.90;;;;;;5013154;28;20143;-75
2022/06/05 00:10:26;;;;;;;13.95;5.13;;;12.40;99.90;;;;;;5009285;28;20042;-75
2022/06/05 00:13:14;;;;;;;8.45;5.40;;;12.40;99.90;;;;;;5010071;28;20088;-75
2022/06/05 00:15:40;;;;;;;8.10;5.40;;;12.40;99.90;;;;;;4992628;28;20068;-77
2022/06/05 00:18:06;;;;;;;8.07;5.30;;;12.70;99.90;;;;;;4996781;28;20428;-75
2022/06/05 00:20:32;;;;;;;6.03;4.90;;;12.40;99.90;;;;;;5022216;28;20033;-77
2022/06/05 00:22:58;;;;;;;9.98;6.00;;;12.60;99.90;;;;;;4999101;28;20456;-75
2022/06/05 00:25:33;;;;;;;9.43;6.18;;;13.40;99.90;;;;;;5033336;28;20049;-78
2022/06/05 00:28:23;;;;;;;7.10;5.95;;;12.30;99.90;;;;;;4996432;28;20560;-76
2022/06/05 00:31:01;;;;;;;7.43;5.35;;;12.70;99.90;;;;;;5011630;28;20576;-75
2022/06/05 00:33:36;;;;;;;12.55;5.95;;;12.30;99.90;;;;;;5011696;28;20096;-77
2022/06/05 00:36:12;;;;;;;11.70;5.85;;;12.30;99.90;;;;;;5011565;28;20053;-78
2022/06/05 00:38:57;;;;;;;10.20;5.63;;;12.30;99.90;;;;;;4997805;28;20089;-79
2022/06/05 00:41:46;;;;;;;10.95;6.57;;;12.30;99.90;;;;;;5010787;28;20049;-79
2022/06/05 00:44:15;;;;;;;9.25;6.22;;;12.30;99.90;;;;;;5010879;28;20497;-79
2022/06/05 00:46:42;;;;;;;12.85;6.45;;;12.40;99.90;;;;;;4996622;28;20594;-75
2022/06/05 00:49:10;;;;;;;9.30;7.25;;;12.30;99.90;;;;;;5033613;28;20045;-79
2022/06/05 00:51:36;;;;;;;13.50;7.68;;;12.30;99.90;;;;;;5008086;28;20603;-77
2022/06/05 00:54:02;;;;;;;9.82;7.82;;;12.30;99.90;;;;;;5010444;28;20041;-79
2022/06/05 00:56:28;;;;;;;12.30;9.15;;;12.30;99.90;;;;;;4998767;28;20179;-77
2022/06/05 00:58:54;;;;;;;12.38;8.35;;;13.50;99.90;;;;;;5012739;28;20049;-78
2022/06/05 01:01:20;;;;;;;13.60;8.75;;;12.70;99.90;;;;;;5013190;28;20041;-79
2022/06/05 01:03:47;;;;;;;14.80;7.60;;;12.20;99.90;;;;;;4991127;28;20045;-79
2022/06/05 01:06:13;;;;;;;10.85;7.90;;;12.20;99.90;;;;;;5009202;28;20056;-76
2022/06/05 01:08:40;;;;;;;13.25;8.30;;;12.20;99.90;;;;;;5013557;28;20081;-77
2022/06/05 01:11:26;;;;;;;12.40;8.82;;;12.20;99.90;;;;;;5002286;28;20053;-79
2022/06/05 01:14:18;;;;;;;13.77;9.23;;;12.20;99.90;;;;;;5009575;28;20049;-78
2022/06/05 01:16:53;;;;;;;10.38;7.85;;;12.20;99.90;;;;;;4991998;28;20073;-79
2022/06/05 01:19:51;;;;;;;15.63;9.70;;;12.20;99.90;;;;;;5008108;28;20046;-80
2022/06/05 01:22:30;;;;;;;14.73;8.45;;;12.20;99.90;;;;;;5013779;28;20053;-80
2022/06/05 01:24:59;;;;;;;13.50;8.75;;;12.20;99.90;;;;;;5009257;28;20125;-79
2022/06/05 01:27:31;;;;;;;10.13;8.73;;;12.20;99.90;;;;;;5009560;28;20037;-77
2022/06/05 01:30:02;;;;;;;12.48;8.98;;;12.10;99.90;;;;;;5012361;28;20069;-80
2022/06/05 01:32:41;;;;;;;14.27;8.10;;;12.10;99.90;;;;;;4993525;28;20076;-79
2022/06/05 01:35:21;;;;;;;13.00;7.88;;;12.10;99.90;;;;;;5009331;28;20072;-79
2022/06/05 01:37:50;;;;;;;17.60;7.75;;;13.10;99.90;;;;;;4993787;28;20470;-79
2022/06/05 01:40:20;;;;;;;12.82;8.55;;;12.90;99.90;;;;;;4996249;28;20489;-79
2022/06/05 01:42:57;;;;;;;15.32;8.02;;;12.20;99.90;;;;;;5011265;28;20525;-77
2022/06/05 01:45:23;;;;;;;12.57;7.63;;;12.20;99.90;;;;;;4999355;28;20092;-80
2022/06/05 01:47:54;;;;;;;9.90;7.78;;;12.20;99.90;;;;;;5011602;28;20041;-79
2022/06/05 01:50:28;;;;;;;14.90;8.13;;;13.00;99.90;;;;;;5009190;28;20052;-81
2022/06/05 01:53:21;;;;;;;10.98;7.60;;;12.20;99.90;;;;;;5014927;28;20428;-80
2022/06/05 01:56:01;;;;;;;9.77;6.97;;;12.20;99.90;;;;;;5000204;28;20065;-80
2022/06/05 01:58:36;;;;;;;13.40;7.03;;;12.20;99.90;;;;;;5012550;28;20477;-77
2022/06/05 02:01:06;;;;;;;11.63;6.35;;;12.20;99.90;;;;;;5007763;28;20052;-80
2022/06/05 02:03:50;;;;;;;11.18;8.23;;;12.70;99.90;;;;;;5011358;28;21525;-80
2022/06/05 02:06:23;;;;;;;13.77;7.03;;;12.20;99.90;;;;;;5009148;28;20128;-77
2022/06/05 02:08:54;;;;;;;7.68;6.68;;;13.50;99.90;;;;;;5016503;28;20413;-78
2022/06/05 02:11:28;;;;;;;10.95;6.78;;;12.20;99.90;;;;;;5011630;28;20045;-80
2022/06/05 02:13:58;;;;;;;12.55;7.03;;;12.20;99.90;;;;;;5008774;28;20037;-78
2022/06/05 02:16:25;;;;;;;16.00;7.25;;;12.20;99.90;;;;;;4991458;28;20040;-78
2022/06/05 02:18:51;;;;;;;14.43;7.60;;;12.20;99.90;;;;;;5010944;28;20046;-79
2022/06/05 02:21:17;;;;;;;10.38;7.07;;;12.90;99.90;;;;;;5026268;28;20107;-80
2022/06/05 02:23:42;;;;;;;12.57;7.47;;;12.10;99.90;;;;;;5014116;28;20044;-80
2022/06/05 02:26:09;;;;;;;13.63;7.03;;;12.80;99.90;;;;;;5000192;28;20394;-78
2022/06/05 02:28:36;;;;;;;11.52;6.32;;;13.10;99.90;;;;;;5013484;28;20126;-80
2022/06/05 02:31:34;;;;;;;12.85;7.65;;;13.10;99.90;;;;;;5014254;28;20041;-79
2022/06/05 02:34:13;;;;;;;12.73;6.97;;;12.20;99.90;;;;;;5008834;28;20100;-78
2022/06/05 02:37:12;;;;;;;10.68;7.47;;;12.20;99.90;;;;;;5008539;28;20124;-80
2022/06/05 02:39:49;;;;;;;12.98;7.32;;;12.20;99.90;;;;;;5003919;28;20049;-78
2022/06/05 02:42:48;;;;;;;14.10;7.85;;;12.20;99.90;;;;;;5014745;28;20042;-79
2022/06/05 02:45:19;;;;;;;12.50;7.57;;;12.20;99.90;;;;;;5015033;28;20045;-79
2022/06/05 02:48:04;;;;;;;13.32;7.97;;;12.20;99.90;;;;;;5016711;28;20551;-78
2022/06/05 02:50:43;;;;;;;15.57;9.15;;;12.20;99.90;;;;;;4993888;28;20038;-80
2022/06/05 02:53:11;;;;;;;10.98;7.93;;;12.20;99.90;;;;;;5015345;28;20041;-79
2022/06/05 02:55:37;;;;;;;9.68;8.20;;;12.80;99.90;;;;;;5002147;28;20107;-80
2022/06/05 02:58:04;;;;;;;12.55;10.15;;;12.20;99.90;;;;;;5015284;28;20052;-80
2022/06/05 03:00:32;;;;;;;13.25;9.02;;;12.20;99.90;;;;;;5015079;28;20489;-80
2022/06/05 03:05:43;;;;;;;10.93;9.32;;;12.20;99.90;;;;;;5012869;28;20052;-77
2022/06/05 03:08:14;;;;;;;12.75;8.88;;;12.20;99.90;;;;;;5001671;28;20053;-79
2022/06/05 03:10:41;;;;;;;9.70;8.32;;;12.20;99.90;;;;;;5011969;28;20052;-77
2022/06/05 03:13:07;;;;;;;14.07;8.30;;;12.30;99.90;;;;;;4999841;28;20094;-77
2022/06/05 03:15:34;;;;;;;17.48;8.10;;;12.20;99.90;;;;;;5015426;28;20555;-78
2022/06/05 03:17:59;;;;;;;15.55;9.20;;;12.60;99.90;;;;;;5011332;28;20080;-77
2022/06/05 03:20:25;;;;;;;12.73;9.30;;;12.20;99.90;;;;;;5021184;28;20493;-78
2022/06/05 03:22:52;;;;;;;14.95;9.02;;;12.20;99.90;;;;;;5011330;28;20565;-79
2022/06/05 03:25:22;;;;;;;14.90;9.73;;;12.20;99.90;;;;;;5018461;28;20085;-79
2022/06/05 03:27:48;;;;;;;16.08;10.20;;;12.10;99.90;;;;;;5016479;28;20046;-79
2022/06/05 03:30:15;;;;;;;13.48;10.68;;;12.20;99.90;;;;;;5011494;28;20049;-80
2022/06/05 03:32:42;;;;;;;16.45;10.27;;;13.50;99.90;;;;;;5010266;28;20041;-78
2022/06/05 03:35:08;;;;;;;12.25;8.85;;;12.30;99.90;;;;;;5011697;28;20076;-79
2022/06/05 03:37:34;;;;;;;13.98;9.25;;;12.20;99.90;;;;;;5014787;28;20116;-79
2022/06/05 03:40:00;;;;;;;15.45;9.95;;;12.70;99.90;;;;;;5012759;28;20033;-77
2022/06/05 03:42:26;;;;;;;12.45;9.90;;;12.20;99.90;;;;;;5011834;28;21020;-79
2022/06/05 03:44:52;;;;;;;14.10;9.57;;;13.00;99.90;;;;;;5000271;28;20044;-79
2022/06/05 03:47:17;;;;;;;13.10;9.57;;;13.40;99.90;;;;;;5017527;28;20465;-80
2022/06/05 03:49:43;;;;;;;13.65;8.82;;;12.30;99.90;;;;;;4997627;28;20401;-79
2022/06/05 03:52:10;;;;;;;14.15;10.13;;;12.30;99.90;;;;;;4997502;28;20529;-80
2022/06/05 03:54:38;;;;;;;12.43;10.25;;;12.30;99.90;;;;;;5025749;28;20060;-80
2022/06/05 03:57:05;;;;;;;17.45;10.05;;;13.40;99.90;;;;;;5021616;28;20036;-80
2022/06/05 03:59:34;;;;;;;13.13;9.85;;;13.60;99.90;;;;;;5028306;28;20049;-79
2022/06/05 04:02:00;;;;;;;12.32;8.88;;;12.30;99.90;;;;;;5023980;28;20091;-79
2022/06/05 04:04:25;;;;;;;15.07;9.95;;;12.30;99.90;;;;;;5010482;28;20034;-79
2022/06/05 04:06:51;;;;;;;12.82;10.00;;;12.50;99.90;;;;;;5028448;28;20065;-80
2022/06/05 04:09:17;;;;;;;15.48;10.18;;;13.40;99.90;;;;;;5028331;28;20050;-79
2022/06/05 04:11:42;;;;;;;15.70;10.48;;;13.60;99.90;;;;;;5028850;28;20037;-79
2022/06/05 04:14:09;;;;;;;16.45;10.00;;;12.40;99.90;;;;;;5007522;28;20042;-79
2022/06/05 04:16:36;;;;;;;12.13;10.55;;;12.40;99.90;;;;;;5044023;28;20053;-78
2022/06/05 04:19:03;;;;;;;15.50;9.98;;;12.90;99.90;;;;;;5028133;28;20041;-80
2022/06/05 04:21:31;;;;;;;16.17;10.27;;;12.50;99.90;;;;;;5029339;28;20516;-80
2022/06/05 04:23:58;;;;;;;11.07;9.90;;;13.30;99.90;;;;;;5004698;28;22139;-80
2022/06/05 04:26:34;;;;;;;18.90;10.73;;;12.50;99.90;;;;;;5028449;28;20075;-80
2022/06/05 04:29:00;;;;;;;12.13;9.48;;;12.50;99.90;;;;;;5030247;28;20041;-78
2022/06/05 04:31:35;;;;;;;12.50;9.93;;;12.50;99.90;;;;;;5005329;28;20068;-80
2022/06/05 04:34:04;;;;;;;13.77;10.15;;;12.60;99.90;;;;;;5006178;28;20564;-80
2022/06/05 04:36:30;;;;;;;12.98;10.48;;;12.60;99.90;;;;;;5027750;28;20042;-81
2022/06/05 04:38:56;;;;;;;20.52;11.35;;;12.60;99.90;;;;;;5026688;28;20056;-80
2022/06/05 04:41:24;;;;;;;11.48;9.60;;;13.80;99.90;;;;;;5026575;28;20041;-80
2022/06/05 04:43:51;;;;;;;13.88;10.05;;;12.70;99.90;;;;;;5026890;28;20049;-80
2022/06/05 04:46:19;;;;;;;17.05;9.88;;;12.90;99.90;;;;;;5026973;28;20121;-80
2022/06/05 04:48:44;;;;;;;12.23;8.90;;;14.00;99.90;;;;;;5025583;28;20042;-80
2022/06/05 04:51:12;;;;;;;15.93;9.30;;;12.80;99.90;;;;;;5028844;28;20042;-80
2022/06/05 04:53:39;;;;;;;17.40;10.00;;;12.80;99.90;;;;;;5042602;28;20045;-80
2022/06/05 04:56:13;;;;;;;10.70;9.65;;;12.80;99.90;;;;;;5028686;28;20045;-80
2022/06/05 04:58:39;;;;;;;;;;;12.80;99.90;;;;;;5018681;28;20042;-80
2022/06/05 05:01:31;;;;;;;14.15;9.30;;;12.90;99.90;;;;;;5028039;28;19952;-81
2022/06/05 05:04:00;;;;;;;17.50;10.82;;;12.90;99.90;;;;;;5006121;28;20049;-80
2022/06/05 05:06:27;;;;;;;12.98;10.15;;;12.90;99.90;;;;;;5027514;28;20049;-81
2022/06/05 05:08:53;;;;;;;16.60;10.23;;;12.90;99.90;;;;;;5022577;28;20048;-81
2022/06/05 05:11:20;;;;;;;10.60;9.50;;;12.90;99.90;;;;;;5027845;28;20030;-81
2022/06/05 05:13:45;;;;;;;13.60;10.30;;;13.00;99.90;;;;;;5009639;28;20080;-80
2022/06/05 05:16:11;;;;;;;16.02;10.13;;;13.00;99.90;;;;;;5024803;28;20041;-81
2022/06/05 05:18:37;;;;;;;14.20;10.40;;;13.00;99.90;;;;;;5022407;28;20048;-81
2022/06/05 05:21:12;;;;;;;14.52;9.88;;;13.00;99.90;;;;;;5006755;28;20046;-80
2022/06/05 05:23:38;;;;;;;14.85;9.73;;;13.20;99.90;;;;;;5009113;28;21092;-81
2022/06/05 05:26:09;;;;;;;10.55;9.40;;;13.10;99.90;;;;;;5005866;28;20465;-78
2022/06/05 05:28:39;;;;;;;14.45;10.90;;;13.10;99.90;;;;;;5026281;28;20056;-79
2022/06/05 05:31:19;;;;;;;16.50;10.75;;;13.20;99.90;;;;;;5005672;28;20045;-77
2022/06/05 05:33:46;;;;;;;14.27;9.63;;;13.20;99.90;;;;;;5002936;28;20042;-80
2022/06/05 05:36:11;;;;;;;15.68;10.68;;;13.20;99.90;;;;;;5004532;28;20037;-81
2022/06/05 05:38:38;;;;;;;14.00;9.77;;;14.40;99.90;;;;;;5010632;28;20072;-79
2022/06/05 05:43:52;;;;;;;12.85;9.55;;;13.60;99.90;;;;;;5019068;28;20042;-76
2022/06/05 05:46:17;;;;;;;13.25;10.23;;;13.40;99.90;;;;;;5027458;28;20052;-77
2022/06/05 05:48:43;;;;;;;12.00;10.40;;;14.60;99.90;;;;;;5025272;28;20037;-75
2022/06/05 05:51:13;;;;;;;13.13;10.13;;;14.40;99.90;;;;;;5008830;28;20095;-76
2022/06/05 05:53:39;;;;;;;16.52;10.45;;;13.50;99.90;;;;;;5005954;28;20052;-76
2022/06/05 05:56:15;;;;;;;15.32;11.05;;;13.50;99.90;;;;;;5042054;28;20404;-76
2022/06/05 05:58:41;;;;;;;13.07;10.43;;;13.60;99.90;;;;;;5021909;28;20076;-77
2022/06/05 06:01:10;;;;;;;14.40;10.73;;;13.60;99.90;;;;;;5027579;28;20048;-77
2022/06/05 06:03:37;;;;;;;63.53;46.83;;;13.80;99.90;;;;;;5028406;28;20053;-76
2022/06/05 06:06:03;;;;;;;29.38;23.08;;;13.70;99.90;;;;;;5010057;28;20041;-75
2022/06/05 06:08:29;;;;;;;19.73;12.20;;;13.70;99.90;;;;;;5023246;28;20053;-75
2022/06/05 06:10:55;;;;;;;14.57;10.77;;;14.00;99.90;;;;;;5025149;28;20424;-75
2022/06/05 06:13:22;;;;;;;12.55;9.90;;;13.80;99.90;;;;;;5043481;28;20552;-76
2022/06/05 06:15:49;;;;;;;11.60;9.55;;;14.10;99.90;;;;;;5003641;28;20409;-76
2022/06/05 06:18:16;;;;;;;13.68;10.13;;;15.00;99.90;;;;;;5024832;28;20107;-77
2022/06/05 06:20:41;;;;;;;12.35;9.75;;;13.90;99.90;;;;;;5022595;28;20143;-77
2022/06/05 06:23:07;;;;;;;15.32;10.23;;;14.00;99.90;;;;;;5009384;28;20497;-77
2022/06/05 06:25:33;;;;;;;15.90;10.27;;;14.00;99.90;;;;;;5008405;28;20045;-76
2022/06/05 06:27:58;;;;;;;13.07;9.30;;;14.10;99.90;;;;;;5024630;28;20079;-77
2022/06/05 06:30:24;;;;;;;10.88;9.32;;;14.20;99.90;;;;;;5039170;28;20063;-77
2022/06/05 06:32:50;;;;;;;12.30;10.40;;;14.10;99.90;;;;;;5026873;28;20033;-77
2022/06/05 06:35:16;;;;;;;12.00;10.63;;;14.10;99.90;;;;;;5027646;28;20087;-77
2022/06/05 06:37:41;;;;;;;14.23;9.80;;;14.30;99.90;;;;;;5023944;28;20397;-77
2022/06/05 06:40:07;;;;;;;10.48;9.40;;;14.50;99.90;;;;;;5008344;28;20049;-77
2022/06/05 06:42:33;;;;;;;12.43;9.98;;;14.40;99.90;;;;;;5007760;28;20500;-77
2022/06/05 06:44:59;;;;;;;16.35;10.40;;;14.40;99.90;;;;;;5024701;28;20038;-76
2022/06/05 06:47:24;;;;;;;11.63;9.63;;;14.40;99.90;;;;;;5024521;28;20500;-78
2022/06/05 06:49:50;;;;;;;14.00;9.88;;;14.50;99.90;;;;;;5003782;28;20050;-76
2022/06/05 06:52:16;;;;;;;10.73;9.63;;;14.50;99.90;;;;;;5019870;28;20505;-75
2022/06/05 06:54:43;;;;;;;16.05;9.63;;;15.60;99.90;;;;;;5022496;28;20100;-76
2022/06/05 06:57:09;;;;;;;12.50;9.63;;;14.60;99.90;;;;;;5033674;28;20120;-77
2022/06/05 06:59:35;;;;;;;11.88;9.65;;;14.70;99.90;;;;;;5020701;28;20486;-77
2022/06/05 07:02:01;;;;;;;16.48;12.00;;;15.30;99.90;;;;;;5023783;28;20129;-77
2022/06/05 07:04:27;;;;;;;18.05;15.40;;;14.90;99.90;;;;;;5025974;28;20493;-76
2022/06/05 07:08:56;;;;;;;12.30;8.98;;;14.90;99.90;;;;;;5089373;27;20417;-76
2022/06/05 07:11:22;;;;;;;10.60;9.43;;;15.00;99.90;;;;;;5072702;28;20067;-77
2022/06/05 07:13:48;;;;;;;10.70;9.02;;;15.10;99.90;;;;;;5078001;28;20049;-78
2022/06/05 07:16:14;;;;;;;9.38;8.40;;;15.20;99.90;;;;;;5071475;28;20052;-83
2022/06/05 07:18:40;;;;;;;11.40;9.88;;;14.70;99.90;;;;;;5051390;28;20044;-78
2022/06/05 07:21:21;;;;;;;10.38;8.73;;;15.30;99.90;;;;;;5052407;28;20094;-80
2022/06/05 07:23:48;;;;;;;14.50;8.85;;;15.30;99.90;;;;;;5066080;28;20048;-80
2022/06/05 07:26:16;;;;;;;10.35;8.48;;;15.00;99.90;;;;;;5047748;28;20044;-83
2022/06/05 07:28:42;;;;;;;9.85;8.85;;;15.40;99.90;;;;;;5063990;28;20119;-81
2022/06/05 07:31:09;;;;;;;10.27;9.18;;;15.50;99.90;;;;;;5061413;28;20461;-76
2022/06/05 07:33:36;;;;;;;10.00;9.13;;;15.80;99.90;;;;;;5067462;28;20079;-79
2022/06/05 07:36:05;;;;;;;11.40;9.77;;;15.60;99.90;;;;;;5063374;28;20143;-79
2022/06/05 07:38:32;;;;;;;10.23;8.63;;;15.70;99.90;;;;;;5052318;28;20127;-80
2022/06/05 07:40:58;;;;;;;10.30;7.85;;;15.70;99.90;;;;;;5048795;28;20048;-81
2022/06/05 07:43:25;;;;;;;11.90;9.02;;;15.80;99.90;;;;;;5065626;28;20041;-82
2022/06/05 07:45:50;;;;;;;10.45;8.57;;;15.90;99.90;;;;;;5027294;28;20045;-84
2022/06/05 07:48:19;;;;;;;12.65;8.65;;;15.90;99.90;;;;;;5060497;28;20098;-81
2022/06/05 07:56:15;;;;;;;12.35;8.43;;;16.60;99.90;;;;;;5057235;28;20128;-84
2022/06/05 07:58:43;;;;;;;9.15;8.25;;;16.60;99.90;;;;;;5058999;28;20460;-81
2022/06/05 08:01:09;;;;;;;11.75;8.48;;;15.70;99.90;;;;;;5061658;28;20040;-83
2022/06/05 08:03:36;;;;;;;9.32;8.38;;;16.40;99.90;;;;;;5061893;28;20052;-83
2022/06/05 08:06:02;;;;;;;11.52;8.18;;;16.50;99.90;;;;;;5063286;28;20047;-82
2022/06/05 08:08:27;;;;;;;8.93;8.10;;;16.60;99.90;;;;;;5059706;28;20053;-82
2022/06/05 08:10:53;;;;;;;9.05;7.72;;;16.70;99.90;;;;;;5061774;28;20036;-85
2022/06/05 08:13:18;;;;;;;12.30;8.40;;;16.70;99.90;;;;;;5061706;28;20179;-84
2022/06/05 08:15:45;;;;;;;8.90;8.00;;;16.80;99.90;;;;;;5066263;28;20453;-84
2022/06/05 08:18:11;;;;;;;9.43;8.13;;;16.90;99.90;;;;;;4365022;28;10000727;-85
2022/06/05 08:20:37;;;;;;;10.45;8.25;;;16.90;99.90;;;;;;5044946;28;20299;-84
2022/06/05 08:23:02;;;;;;;8.70;7.90;;;17.00;99.90;;;;;;5043488;28;20033;-84
2022/06/05 08:25:31;;;;;;;12.70;7.07;;;17.10;99.90;;;;;;5030271;28;20417;-84
2022/06/05 08:27:57;;;;;;;8.90;7.13;;;18.10;99.90;;;;;;5043936;28;20503;-85
2022/06/05 08:30:22;;;;;;;7.45;6.85;;;17.30;99.90;;;;;;5036382;28;20071;-85
2022/06/05 08:32:48;;;;;;;11.68;7.30;;;17.90;99.90;;;;;;5048165;28;20091;-85
2022/06/05 08:35:14;;;;;;;7.60;6.80;;;17.50;99.90;;;;;;5062738;28;20037;-86
2022/06/05 08:43:18;;;;;;;8.00;7.00;;;17.80;99.90;;;;;;5047394;28;20060;-84
2022/06/05 08:45:50;;;;;;;9.18;7.38;;;17.80;99.90;;;;;;5032873;28;20094;-83
2022/06/05 08:48:27;;;;;;;7.65;6.78;;;17.80;99.90;;;;;;5052104;28;20084;-84
2022/06/05 08:51:10;;;;;;;8.77;7.45;;;17.90;99.90;;;;;;5049527;28;20040;-83
2022/06/05 08:53:55;;;;;;;9.88;6.88;;;18.00;99.90;;;;;;5045317;28;20068;-82
2022/06/05 08:56:35;;;;;;;6.47;5.80;;;18.10;99.90;;;;;;5034827;28;20041;-83
2022/06/05 08:59:10;;;;;;;8.15;6.13;;;18.20;99.90;;;;;;5049309;28;20094;-84
2022/06/05 09:01:47;;;;;;;8.40;6.32;;;18.20;99.90;;;;;;5046335;28;20033;-85
2022/06/05 09:04:24;;;;;;;5.88;5.25;;;18.30;99.90;;;;;;5031255;28;20508;-84
2022/06/05 09:07:00;;;;;;;5.85;5.35;;;18.40;99.90;;;;;;5029577;28;20063;-86
2022/06/05 09:09:49;;;;;;;7.05;5.88;;;18.50;99.90;;;;;;5040162;28;20045;-83
2022/06/05 09:12:39;;;;;;;7.63;6.25;;;18.60;99.90;;;;;;5062737;28;20036;-84
2022/06/05 09:15:14;;;;;;;7.03;6.10;;;18.70;99.90;;;;;;5046826;28;20128;-84
2022/06/05 09:17:48;;;;;;;7.53;6.32;;;18.70;99.90;;;;;;5042121;28;20033;-84
2022/06/05 09:20:17;;;;;;;9.00;6.60;;;18.70;99.90;;;;;;5043215;28;20094;-84
2022/06/05 09:22:59;;;;;;;8.27;6.40;;;18.80;99.90;;;;;;5049867;28;20095;-84
2022/06/05 09:25:39;;;;;;;6.53;6.03;;;18.80;99.90;;;;;;5040815;28;20444;-84
2022/06/05 09:28:22;;;;;;;6.90;6.20;;;18.80;99.90;;;;;;5043034;28;20080;-78
2022/06/05 09:30:56;;;;;;;6.10;5.50;;;18.90;99.90;;;;;;5045120;28;20049;-82
2022/06/05 09:33:35;;;;;;;7.55;6.53;;;19.00;99.90;;;;;;5044023;28;20466;-79
2022/06/05 09:36:08;;;;;;;6.30;5.60;;;19.00;99.90;;;;;;5046281;28;20049;-81
2022/06/05 09:38:58;;;;;;;7.28;5.95;;;19.40;99.90;;;;;;5049959;28;20098;-79
2022/06/05 09:41:42;;;;;;;6.22;5.63;;;19.20;99.90;;;;;;5040097;28;20089;-80
2022/06/05 09:44:31;;;;;;;7.00;6.40;;;19.30;99.90;;;;;;5028660;28;20041;-81
2022/06/05 09:46:59;;;;;;;6.47;5.78;;;19.40;99.90;;;;;;5042350;28;20045;-79
2022/06/05 09:49:34;;;;;;;6.97;5.82;;;19.50;99.90;;;;;;5044204;28;20037;-79
2022/06/05 09:52:15;;;;;;;8.73;6.30;;;19.60;99.90;;;;;;5044335;28;20043;-79
2022/06/05 09:55:00;;;;;;;7.40;5.90;;;19.60;99.90;;;;;;5046265;28;20091;-77
2022/06/05 10:00:41;;;;;;;8.50;5.72;;;19.80;99.90;;;;;;5039957;28;20108;-77
2022/06/05 10:03:14;;;;;;;6.85;6.15;;;19.90;99.90;;;;;;5042985;28;20069;-80
2022/06/05 10:05:45;;;;;;;8.27;6.35;;;20.00;99.90;;;;;;5041072;28;20064;-78
2022/06/05 10:08:24;;;;;;;6.50;5.15;;;20.10;99.90;;;;;;5043899;28;20704;-80
2022/06/05 10:10:56;;;;;;;7.40;5.88;;;20.10;99.90;;;;;;5028935;28;20651;-81
2022/06/05 10:13:50;;;;;;;7.88;5.60;;;20.20;99.90;;;;;;5038820;28;20055;-80
2022/06/05 10:16:45;;;;;;;;;;;20.60;99.90;;;;;;5063310;28;20131;-80
2022/06/05 10:19:11;;;;;;;7.25;5.07;;;20.20;99.90;;;;;;5041381;28;19983;-81
2022/06/05 10:21:42;;;;;;;9.20;5.25;;;20.30;99.90;;;;;;5042857;28;20412;-80
2022/06/05 10:24:26;;;;;;;5.00;4.60;;;20.40;99.90;;;;;;5046109;28;20148;-80
2022/06/05 10:26:56;;;;;;;6.70;5.03;;;20.40;99.90;;;;;;5044843;28;20104;-80
2022/06/05 10:29:39;;;;;;;14.40;5.80;;;20.50;99.90;;;;;;5038471;28;20033;-76
2022/06/05 10:32:19;;;;;;;7.40;4.53;;;20.50;99.90;;;;;;5026934;28;20051;-78
2022/06/05 10:35:14;;;;;;;5.95;4.85;;;20.60;99.90;;;;;;5028741;28;20593;-87
2022/06/05 10:37:58;;;;;;;5.95;5.38;;;20.60;99.90;;;;;;5021715;28;20110;-78
2022/06/05 10:40:39;;;;;;;4.72;4.30;;;20.70;99.90;;;;;;5027854;28;20029;-78
2022/06/05 10:43:20;;;;;;;6.75;5.63;;;20.70;99.90;;;;;;5027002;28;20045;-79
2022/06/05 10:45:51;;;;;;;5.55;4.57;;;20.70;99.90;;;;;;5043622;28;20471;-79
2022/06/05 10:48:53;;;;;;;5.13;4.78;;;20.80;99.90;;;;;;5042137;28;20037;-79
2022/06/05 10:51:19;;;;;;;8.05;7.25;;;20.80;99.90;;;;;;5028838;28;20037;-79
2022/06/05 10:54:27;;;;;;;8.85;5.57;;;20.90;99.90;;;;;;5045578;28;20534;-80
2022/06/05 10:57:17;;;;;;;6.40;4.95;;;20.90;99.90;;;;;;4984752;28;20057;-80
2022/06/05 10:59:55;;;;;;;5.72;4.53;;;21.00;99.90;;;;;;5018265;28;20141;-80
2022/06/05 11:02:50;;;;;;;5.47;4.50;;;21.00;99.90;;;;;;5029819;28;20482;-79
2022/06/05 11:05:17;;;;;;;5.85;4.25;;;21.00;99.90;;;;;;5046794;28;20047;-79
2022/06/05 11:08:08;;;;;;;5.70;4.80;;;21.10;99.90;;;;;;5045674;28;20057;-79
2022/06/05 11:14:14;;;;;;;6.10;4.40;;;21.00;99.90;;;;;;5058571;28;20048;-82
2022/06/05 11:16:59;;;;;;;7.13;4.80;;;21.00;99.90;;;;;;5027851;28;20040;-75
2022/06/05 11:19:32;;;;;;;5.30;4.88;;;21.00;99.90;;;;;;5037446;28;20408;-77
2022/06/05 11:22:01;;;;;;;8.07;5.38;;;21.00;99.90;;;;;;5028530;28;20384;-76
2022/06/05 11:24:44;;;;;;;7.60;5.45;;;21.00;99.90;;;;;;5030204;28;20072;-75
2022/06/05 11:27:33;;;;;;;7.20;4.55;;;21.00;99.90;;;;;;5044016;28;20158;-76
2022/06/05 11:29:59;;;;;;;4.50;4.10;;;21.00;99.90;;;;;;5020554;28;20051;-76
2022/06/05 11:32:24;;;;;;;6.43;4.68;;;21.20;99.90;;;;;;5040911;28;20044;-77
2022/06/05 11:35:23;;;;;;;10.93;5.32;;;21.40;99.90;;;;;;5024755;28;20507;-76
2022/06/05 11:38:26;;;;;;;19.98;5.40;;;21.20;99.90;;;;;;5039466;28;20048;-78
2022/06/05 11:41:27;;;;;;;8.48;4.70;;;21.20;99.90;;;;;;5043410;28;20037;-80
2022/06/05 11:44:37;;;;;;;7.85;5.07;;;21.20;99.90;;;;;;4695482;28;10000000;-76
2022/06/05 11:47:34;;;;;;;6.28;4.53;;;21.20;99.90;;;;;;5039252;28;20053;-76
2022/06/05 11:50:10;;;;;;;15.88;5.45;;;21.20;99.90;;;;;;5036978;28;20052;-76
2022/06/05 11:52:44;;;;;;;8.20;5.22;;;21.30;99.90;;;;;;5039351;28;20675;-74
2022/06/05 11:55:13;;;;;;;5.85;4.30;;;21.30;99.90;;;;;;5041569;28;20036;-75
2022/06/05 11:57:50;;;;;;;5.25;4.28;;;21.30;99.90;;;;;;5026829;28;20069;-76
2022/06/05 12:00:39;;;;;;;10.32;4.10;;;21.30;99.90;;;;;;5046655;28;20579;-78
2022/06/05 12:03:23;;;;;;;11.38;6.78;;;21.40;99.90;;;;;;5042509;28;20479;-80
2022/06/05 12:06:00;;;;;;;;;;;21.40;99.90;;;;;;5025331;28;20037;-77
2022/06/05 12:08:38;;;;;;;4.90;4.13;;;21.40;99.90;;;;;;5043466;28;19934;-79
2022/06/05 12:11:16;;;;;;;6.22;4.07;;;21.50;99.90;;;;;;5038192;28;20044;-78
2022/06/05 12:14:13;;;;;;;4.55;4.15;;;21.50;99.90;;;;;;5033296;28;20060;-78
2022/06/05 12:16:47;;;;;;;7.55;5.50;;;21.50;99.90;;;;;;5033962;28;21831;-81
2022/06/05 12:19:51;;;;;;;9.27;6.00;;;21.50;99.90;;;;;;5048567;28;20083;-82
2022/06/05 12:22:35;;;;;;;4.65;4.00;;;21.60;99.90;;;;;;5016854;28;20651;-80
2022/06/05 12:25:06;;;;;;;;;;;21.60;99.90;;;;;;5033391;28;20721;-79
2022/06/05 12:28:09;;;;;;;4.32;3.92;;;21.60;99.90;;;;;;5038275;28;19927;-80
2022/06/05 12:30:56;;;;;;;8.65;4.65;;;21.70;99.90;;;;;;5026569;28;20601;-79
2022/06/05 12:33:22;;;;;;;4.88;4.47;;;21.70;99.90;;;;;;5034083;28;20166;-83
2022/06/05 12:35:52;;;;;;;4.80;4.35;;;21.70;99.90;;;;;;5039868;28;20128;-82
2022/06/05 12:38:40;;;;;;;4.47;4.07;;;21.80;99.90;;;;;;5041540;28;20033;-78
2022/06/05 12:41:24;;;;;;;6.40;3.85;;;21.80;99.90;;;;;;5040389;28;20476;-81
2022/06/05 12:43:56;;;;;;;4.90;4.32;;;21.90;99.90;;;;;;5040183;28;20087;-81
2022/06/05 12:46:49;;;;;;;4.85;4.38;;;21.90;99.90;;;;;;5046624;28;20676;-82
2022/06/05 12:49:40;;;;;;;5.23;4.30;;;21.90;99.90;;;;;;5040309;28;20490;-81
2022/06/05 12:52:24;;;;;;;8.80;3.72;;;21.90;99.90;;;;;;5038503;28;20127;-74
2022/06/05 12:55:08;;;;;;;5.28;4.78;;;21.90;99.90;;;;;;5038002;28;20045;-79
2022/06/05 12:57:45;;;;;;;4.75;3.83;;;21.90;99.90;;;;;;5023586;28;20158;-80
2022/06/05 13:00:26;;;;;;;11.02;4.47;;;21.90;99.90;;;;;;5042739;28;20045;-79
2022/06/05 13:03:38;;;;;;;6.40;4.80;;;21.90;99.90;;;;;;5046448;28;20056;-80
2022/06/05 13:06:34;;;;;;;8.00;4.00;;;21.90;99.90;;;;;;5046258;28;20048;-80
2022/06/05 13:09:15;;;;;;;5.43;4.40;;;21.90;99.90;;;;;;5044680;28;20171;-80
2022/06/05 13:11:47;;;;;;;5.20;3.78;;;21.80;99.90;;;;;;5027732;28;20107;-74
2022/06/05 13:14:21;;;;;;;6.13;4.13;;;21.90;99.90;;;;;;5028466;28;20575;-79
2022/06/05 13:16:56;;;;;;;4.50;4.10;;;21.90;99.90;;;;;;5045864;28;20500;-77
2022/06/05 13:19:27;;;;;;;5.43;3.80;;;21.90;99.90;;;;;;5047800;28;20518;-78
2022/06/05 13:22:00;;;;;;;7.82;5.00;;;21.80;99.90;;;;;;5048905;28;20076;-81
2022/06/05 13:24:52;;;;;;;5.95;4.70;;;21.90;99.90;;;;;;5049708;28;20071;-81
2022/06/05 13:27:35;;;;;;;7.10;3.63;;;21.80;99.90;;;;;;5046439;28;20505;-80
2022/06/05 13:30:24;;;;;;;4.22;3.30;;;21.80;99.90;;;;;;5043431;28;20045;-80
2022/06/05 13:33:08;;;;;;;7.28;4.72;;;21.80;99.90;;;;;;5044979;28;20044;-78
2022/06/05 13:35:53;;;;;;;5.07;4.45;;;21.80;99.90;;;;;;5044293;28;20040;-79
2022/06/05 13:38:48;;;;;;;6.95;4.28;;;21.90;99.90;;;;;;5047165;28;20063;-81
2022/06/05 13:41:32;;;;;;;6.28;3.85;;;21.90;99.90;;;;;;5041792;28;20044;-80